sensor_id;sensor_type;location;lat;lon;timestamp;P1;durP1;ratioP1;P2;durP2;ratioP2
79401;SDS011;68857;47.916;106.940;2023-05-10T00:01:57;9.40;;;3.58;;
79401;SDS011;68857;47.916;106.940;2023-05-10T00:04:24;8.68;;;3.22;;
79401;SDS011;68857;47.916;106.940;2023-05-10T00:06:52;10.85;;;2.85;;
79401;SDS011;68857;47.916;106.940;2023-05-10T00:09:20;8.82;;;3.22;;
79401;SDS011;68857;47.916;106.940;2023-05-10T00:11:46;7.55;;;3.55;;
79401;SDS011;68857;47.916;106.940;2023-05-10T00:14:13;9.02;;;2.90;;
79401;SDS011;68857;47.916;106.940;2023-05-10T00:16:39;6.50;;;2.83;;
79401;SDS011;68857;47.916;106.940;2023-05-10T00:19:06;6.68;;;3.10;;
79401;SDS011;68857;47.916;106.940;2023-05-10T00:21:32;6.28;;;2.60;;
79401;SDS011;68857;47.916;106.940;2023-05-10T00:23:59;6.50;;;2.72;;
79401;SDS011;68857;47.916;106.940;2023-05-10T00:26:26;7.80;;;2.42;;
79401;SDS011;68857;47.916;106.940;2023-05-10T00:28:52;5.65;;;2.40;;
79401;SDS011;68857;47.916;106.940;2023-05-10T00:31:19;4.50;;;1.95;;
79401;SDS011;68857;47.916;106.940;2023-05-10T00:33:46;5.97;;;1.90;;
79401;SDS011;68857;47.916;106.940;2023-05-10T00:36:12;5.97;;;3.10;;
79401;SDS011;68857;47.916;106.940;2023-05-10T00:38:39;6.40;;;2.40;;
79401;SDS011;68857;47.916;106.940;2023-05-10T00:41:06;6.78;;;3.25;;
79401;SDS011;68857;47.916;106.940;2023-05-10T00:43:32;6.38;;;2.85;;
79401;SDS011;68857;47.916;106.940;2023-05-10T00:45:59;5.13;;;2.70;;
79401;SDS011;68857;47.916;106.940;2023-05-10T00:48:26;7.32;;;3.58;;
79401;SDS011;68857;47.916;106.940;2023-05-10T00:50:52;9.00;;;3.97;;
79401;SDS011;68857;47.916;106.940;2023-05-10T00:53:19;8.88;;;3.75;;
79401;SDS011;68857;47.916;106.940;2023-05-10T00:55:45;8.88;;;3.85;;
79401;SDS011;68857;47.916;106.940;2023-05-10T00:58:12;9.48;;;4.15;;
79401;SDS011;68857;47.916;106.940;2023-05-10T01:00:39;6.50;;;4.18;;
79401;SDS011;68857;47.916;106.940;2023-05-10T01:03:07;6.03;;;3.58;;
79401;SDS011;68857;47.916;106.940;2023-05-10T01:05:34;9.02;;;3.90;;
79401;SDS011;68857;47.916;106.940;2023-05-10T01:08:00;7.88;;;3.33;;
79401;SDS011;68857;47.916;106.940;2023-05-10T01:10:27;7.07;;;3.67;;
79401;SDS011;68857;47.916;106.940;2023-05-10T01:12:54;6.38;;;3.28;;
79401;SDS011;68857;47.916;106.940;2023-05-10T01:15:22;7.28;;;3.25;;
79401;SDS011;68857;47.916;106.940;2023-05-10T01:17:48;7.85;;;3.00;;
79401;SDS011;68857;47.916;106.940;2023-05-10T01:20:15;6.95;;;3.47;;
79401;SDS011;68857;47.916;106.940;2023-05-10T01:35:55;7.00;;;3.03;;
79401;SDS011;68857;47.916;106.940;2023-05-10T01:38:36;8.65;;;4.10;;
79401;SDS011;68857;47.916;106.940;2023-05-10T01:43:42;8.40;;;3.70;;
79401;SDS011;68857;47.916;106.940;2023-05-10T01:46:35;6.63;;;3.60;;
79401;SDS011;68857;47.916;106.940;2023-05-10T01:48:59;9.93;;;4.43;;
79401;SDS011;68857;47.916;106.940;2023-05-10T01:51:29;8.77;;;3.38;;
79401;SDS011;68857;47.916;106.940;2023-05-10T01:53:58;7.43;;;3.03;;
79401;SDS011;68857;47.916;106.940;2023-05-10T01:56:26;6.30;;;3.53;;
79401;SDS011;68857;47.916;106.940;2023-05-10T01:58:54;8.13;;;3.25;;
79401;SDS011;68857;47.916;106.940;2023-05-10T02:01:21;8.90;;;3.72;;
79401;SDS011;68857;47.916;106.940;2023-05-10T02:03:49;5.63;;;2.70;;
79401;SDS011;68857;47.916;106.940;2023-05-10T02:06:18;7.15;;;3.60;;
79401;SDS011;68857;47.916;106.940;2023-05-10T02:08:45;6.78;;;3.42;;
79401;SDS011;68857;47.916;106.940;2023-05-10T02:11:12;5.90;;;3.35;;
79401;SDS011;68857;47.916;106.940;2023-05-10T02:13:39;6.57;;;2.85;;
79401;SDS011;68857;47.916;106.940;2023-05-10T02:16:08;7.03;;;2.83;;
79401;SDS011;68857;47.916;106.940;2023-05-10T02:18:34;7.10;;;3.22;;
79401;SDS011;68857;47.916;106.940;2023-05-10T02:21:02;5.72;;;2.80;;
79401;SDS011;68857;47.916;106.940;2023-05-10T02:23:29;6.63;;;2.47;;
79401;SDS011;68857;47.916;106.940;2023-05-10T02:25:56;6.97;;;2.92;;
79401;SDS011;68857;47.916;106.940;2023-05-10T02:28:24;5.88;;;2.88;;
79401;SDS011;68857;47.916;106.940;2023-05-10T02:30:52;7.10;;;2.70;;
79401;SDS011;68857;47.916;106.940;2023-05-10T02:33:19;5.43;;;2.78;;
79401;SDS011;68857;47.916;106.940;2023-05-10T02:35:47;6.05;;;2.92;;
79401;SDS011;68857;47.916;106.940;2023-05-10T02:38:14;7.45;;;2.65;;
79401;SDS011;68857;47.916;106.940;2023-05-10T02:40:41;6.80;;;4.00;;
79401;SDS011;68857;47.916;106.940;2023-05-10T02:43:09;5.13;;;3.55;;
79401;SDS011;68857;47.916;106.940;2023-05-10T02:45:38;5.57;;;2.70;;
79401;SDS011;68857;47.916;106.940;2023-05-10T02:48:05;8.27;;;3.03;;
79401;SDS011;68857;47.916;106.940;2023-05-10T02:50:33;4.80;;;2.25;;
79401;SDS011;68857;47.916;106.940;2023-05-10T02:53:01;7.03;;;3.22;;
79401;SDS011;68857;47.916;106.940;2023-05-10T02:55:31;5.72;;;2.35;;
79401;SDS011;68857;47.916;106.940;2023-05-10T02:57:59;5.50;;;2.47;;
79401;SDS011;68857;47.916;106.940;2023-05-10T03:00:26;4.65;;;2.75;;
79401;SDS011;68857;47.916;106.940;2023-05-10T03:02:53;7.47;;;3.03;;
79401;SDS011;68857;47.916;106.940;2023-05-10T03:05:20;6.28;;;3.05;;
79401;SDS011;68857;47.916;106.940;2023-05-10T03:07:47;4.93;;;2.75;;
79401;SDS011;68857;47.916;106.940;2023-05-10T03:10:13;4.65;;;1.88;;
79401;SDS011;68857;47.916;106.940;2023-05-10T03:12:46;6.43;;;2.33;;
79401;SDS011;68857;47.916;106.940;2023-05-10T03:15:22;3.30;;;2.70;;
79401;SDS011;68857;47.916;106.940;2023-05-10T03:17:55;6.15;;;2.45;;
79401;SDS011;68857;47.916;106.940;2023-05-10T03:20:25;5.55;;;3.05;;
79401;SDS011;68857;47.916;106.940;2023-05-10T03:22:53;6.30;;;2.58;;
79401;SDS011;68857;47.916;106.940;2023-05-10T03:25:20;7.53;;;3.45;;
79401;SDS011;68857;47.916;106.940;2023-05-10T03:27:47;4.97;;;2.47;;
79401;SDS011;68857;47.916;106.940;2023-05-10T03:30:14;7.00;;;2.22;;
79401;SDS011;68857;47.916;106.940;2023-05-10T03:32:42;6.20;;;2.55;;
79401;SDS011;68857;47.916;106.940;2023-05-10T03:35:08;4.95;;;2.28;;
79401;SDS011;68857;47.916;106.940;2023-05-10T03:37:35;4.57;;;2.25;;
79401;SDS011;68857;47.916;106.940;2023-05-10T03:40:02;5.28;;;2.55;;
79401;SDS011;68857;47.916;106.940;2023-05-10T03:42:29;6.00;;;2.30;;
79401;SDS011;68857;47.916;106.940;2023-05-10T03:44:55;5.63;;;2.45;;
79401;SDS011;68857;47.916;106.940;2023-05-10T03:47:22;3.88;;;2.10;;
79401;SDS011;68857;47.916;106.940;2023-05-10T03:49:48;4.30;;;2.22;;
79401;SDS011;68857;47.916;106.940;2023-05-10T03:52:15;5.82;;;2.33;;
79401;SDS011;68857;47.916;106.940;2023-05-10T03:54:42;3.80;;;1.98;;
79401;SDS011;68857;47.916;106.940;2023-05-10T03:57:08;3.35;;;1.90;;
79401;SDS011;68857;47.916;106.940;2023-05-10T03:59:35;6.57;;;2.70;;
79401;SDS011;68857;47.916;106.940;2023-05-10T04:02:01;6.47;;;2.50;;
79401;SDS011;68857;47.916;106.940;2023-05-10T04:04:28;5.95;;;3.95;;
79401;SDS011;68857;47.916;106.940;2023-05-10T04:06:54;3.70;;;1.77;;
79401;SDS011;68857;47.916;106.940;2023-05-10T04:09:21;5.07;;;2.05;;
79401;SDS011;68857;47.916;106.940;2023-05-10T04:11:47;6.13;;;2.53;;
79401;SDS011;68857;47.916;106.940;2023-05-10T04:14:15;4.68;;;1.40;;
79401;SDS011;68857;47.916;106.940;2023-05-10T04:16:41;3.17;;;1.73;;
79401;SDS011;68857;47.916;106.940;2023-05-10T04:19:08;4.00;;;1.88;;
79401;SDS011;68857;47.916;106.940;2023-05-10T04:21:35;4.68;;;2.15;;
79401;SDS011;68857;47.916;106.940;2023-05-10T04:24:02;5.90;;;1.55;;
79401;SDS011;68857;47.916;106.940;2023-05-10T04:26:29;4.10;;;2.28;;
79401;SDS011;68857;47.916;106.940;2023-05-10T04:28:56;3.75;;;2.53;;
79401;SDS011;68857;47.916;106.940;2023-05-10T04:31:22;4.50;;;3.88;;
79401;SDS011;68857;47.916;106.940;2023-05-10T04:33:49;4.28;;;2.78;;
79401;SDS011;68857;47.916;106.940;2023-05-10T04:36:16;4.03;;;2.42;;
79401;SDS011;68857;47.916;106.940;2023-05-10T04:38:42;4.40;;;1.77;;
79401;SDS011;68857;47.916;106.940;2023-05-10T04:41:10;3.72;;;2.15;;
79401;SDS011;68857;47.916;106.940;2023-05-10T04:43:37;3.53;;;2.13;;
79401;SDS011;68857;47.916;106.940;2023-05-10T04:46:04;2.90;;;1.65;;
79401;SDS011;68857;47.916;106.940;2023-05-10T04:48:30;4.20;;;2.28;;
79401;SDS011;68857;47.916;106.940;2023-05-10T04:50:57;4.38;;;2.08;;
79401;SDS011;68857;47.916;106.940;2023-05-10T04:53:23;3.67;;;1.80;;
79401;SDS011;68857;47.916;106.940;2023-05-10T04:55:50;3.83;;;2.10;;
79401;SDS011;68857;47.916;106.940;2023-05-10T04:58:16;2.95;;;1.95;;
79401;SDS011;68857;47.916;106.940;2023-05-10T05:00:46;5.15;;;2.08;;
79401;SDS011;68857;47.916;106.940;2023-05-10T05:03:13;4.85;;;2.13;;
79401;SDS011;68857;47.916;106.940;2023-05-10T05:05:40;4.38;;;2.42;;
79401;SDS011;68857;47.916;106.940;2023-05-10T05:08:06;4.40;;;1.92;;
79401;SDS011;68857;47.916;106.940;2023-05-10T05:10:33;3.67;;;2.55;;
79401;SDS011;68857;47.916;106.940;2023-05-10T05:13:00;4.65;;;1.95;;
79401;SDS011;68857;47.916;106.940;2023-05-10T05:15:26;3.45;;;2.55;;
79401;SDS011;68857;47.916;106.940;2023-05-10T05:17:53;4.13;;;1.90;;
79401;SDS011;68857;47.916;106.940;2023-05-10T05:20:20;6.60;;;2.05;;
79401;SDS011;68857;47.916;106.940;2023-05-10T05:22:46;5.18;;;1.95;;
79401;SDS011;68857;47.916;106.940;2023-05-10T05:25:13;4.03;;;2.30;;
79401;SDS011;68857;47.916;106.940;2023-05-10T05:27:40;4.30;;;2.00;;
79401;SDS011;68857;47.916;106.940;2023-05-10T05:30:07;4.72;;;2.97;;
79401;SDS011;68857;47.916;106.940;2023-05-10T05:32:33;4.80;;;1.67;;
79401;SDS011;68857;47.916;106.940;2023-05-10T05:35:00;7.00;;;2.25;;
79401;SDS011;68857;47.916;106.940;2023-05-10T05:37:27;5.40;;;2.15;;
79401;SDS011;68857;47.916;106.940;2023-05-10T05:39:53;6.43;;;2.58;;
79401;SDS011;68857;47.916;106.940;2023-05-10T05:42:20;6.43;;;3.83;;
79401;SDS011;68857;47.916;106.940;2023-05-10T05:44:46;7.28;;;2.80;;
79401;SDS011;68857;47.916;106.940;2023-05-10T05:47:13;7.10;;;2.90;;
79401;SDS011;68857;47.916;106.940;2023-05-10T05:49:39;6.05;;;3.60;;
79401;SDS011;68857;47.916;106.940;2023-05-10T05:52:06;4.82;;;2.22;;
79401;SDS011;68857;47.916;106.940;2023-05-10T05:54:32;4.20;;;2.55;;
79401;SDS011;68857;47.916;106.940;2023-05-10T05:56:59;4.72;;;2.47;;
79401;SDS011;68857;47.916;106.940;2023-05-10T05:59:26;3.33;;;2.13;;
79401;SDS011;68857;47.916;106.940;2023-05-10T06:01:52;4.43;;;2.38;;
79401;SDS011;68857;47.916;106.940;2023-05-10T06:04:19;4.68;;;2.10;;
79401;SDS011;68857;47.916;106.940;2023-05-10T06:06:45;4.85;;;2.55;;
79401;SDS011;68857;47.916;106.940;2023-05-10T06:09:12;5.40;;;2.13;;
79401;SDS011;68857;47.916;106.940;2023-05-10T06:11:38;3.42;;;2.35;;
79401;SDS011;68857;47.916;106.940;2023-05-10T06:14:05;5.63;;;2.35;;
79401;SDS011;68857;47.916;106.940;2023-05-10T06:16:35;5.50;;;1.92;;
79401;SDS011;68857;47.916;106.940;2023-05-10T06:19:02;4.32;;;2.17;;
79401;SDS011;68857;47.916;106.940;2023-05-10T06:21:29;5.03;;;1.60;;
79401;SDS011;68857;47.916;106.940;2023-05-10T06:23:55;3.83;;;1.67;;
79401;SDS011;68857;47.916;106.940;2023-05-10T06:26:22;4.80;;;2.38;;
79401;SDS011;68857;47.916;106.940;2023-05-10T06:28:49;4.97;;;2.42;;
79401;SDS011;68857;47.916;106.940;2023-05-10T06:31:15;7.43;;;2.63;;
79401;SDS011;68857;47.916;106.940;2023-05-10T06:33:43;4.20;;;2.05;;
79401;SDS011;68857;47.916;106.940;2023-05-10T06:36:10;4.70;;;2.42;;
79401;SDS011;68857;47.916;106.940;2023-05-10T06:38:36;6.22;;;2.10;;
79401;SDS011;68857;47.916;106.940;2023-05-10T06:41:03;2.75;;;1.92;;
79401;SDS011;68857;47.916;106.940;2023-05-10T06:43:29;4.10;;;1.85;;
79401;SDS011;68857;47.916;106.940;2023-05-10T06:45:56;5.07;;;2.22;;
79401;SDS011;68857;47.916;106.940;2023-05-10T06:48:22;3.95;;;2.50;;
79401;SDS011;68857;47.916;106.940;2023-05-10T06:50:49;4.15;;;1.90;;
79401;SDS011;68857;47.916;106.940;2023-05-10T06:53:15;3.08;;;2.33;;
79401;SDS011;68857;47.916;106.940;2023-05-10T06:55:42;5.35;;;1.73;;
79401;SDS011;68857;47.916;106.940;2023-05-10T06:58:08;2.78;;;1.92;;
79401;SDS011;68857;47.916;106.940;2023-05-10T07:00:35;7.13;;;2.53;;
79401;SDS011;68857;47.916;106.940;2023-05-10T07:03:05;5.10;;;1.98;;
79401;SDS011;68857;47.916;106.940;2023-05-10T07:05:32;4.32;;;2.20;;
79401;SDS011;68857;47.916;106.940;2023-05-10T07:07:58;5.05;;;3.75;;
79401;SDS011;68857;47.916;106.940;2023-05-10T07:10:26;3.42;;;2.05;;
79401;SDS011;68857;47.916;106.940;2023-05-10T07:12:52;3.00;;;2.25;;
79401;SDS011;68857;47.916;106.940;2023-05-10T07:15:19;3.70;;;1.73;;
79401;SDS011;68857;47.916;106.940;2023-05-10T07:17:46;4.22;;;1.70;;
79401;SDS011;68857;47.916;106.940;2023-05-10T07:20:12;4.43;;;2.00;;
79401;SDS011;68857;47.916;106.940;2023-05-10T07:22:38;6.68;;;1.95;;
79401;SDS011;68857;47.916;106.940;2023-05-10T07:25:06;5.65;;;2.95;;
79401;SDS011;68857;47.916;106.940;2023-05-10T07:27:32;5.25;;;1.60;;
79401;SDS011;68857;47.916;106.940;2023-05-10T07:29:59;4.20;;;2.13;;
79401;SDS011;68857;47.916;106.940;2023-05-10T07:32:26;3.45;;;2.25;;
79401;SDS011;68857;47.916;106.940;2023-05-10T07:34:53;4.57;;;2.03;;
79401;SDS011;68857;47.916;106.940;2023-05-10T07:37:20;4.38;;;2.80;;
79401;SDS011;68857;47.916;106.940;2023-05-10T07:39:46;4.55;;;2.45;;
79401;SDS011;68857;47.916;106.940;2023-05-10T07:42:13;5.68;;;1.83;;
79401;SDS011;68857;47.916;106.940;2023-05-10T07:44:39;4.80;;;2.38;;
79401;SDS011;68857;47.916;106.940;2023-05-10T07:47:06;5.38;;;2.30;;
79401;SDS011;68857;47.916;106.940;2023-05-10T07:49:33;5.97;;;2.75;;
79401;SDS011;68857;47.916;106.940;2023-05-10T07:52:00;5.82;;;2.80;;
79401;SDS011;68857;47.916;106.940;2023-05-10T07:54:27;5.30;;;2.33;;
79401;SDS011;68857;47.916;106.940;2023-05-10T07:56:54;6.10;;;3.25;;
79401;SDS011;68857;47.916;106.940;2023-05-10T07:59:20;5.30;;;2.53;;
79401;SDS011;68857;47.916;106.940;2023-05-10T08:01:47;5.20;;;3.30;;
79401;SDS011;68857;47.916;106.940;2023-05-10T08:04:13;5.25;;;2.80;;
79401;SDS011;68857;47.916;106.940;2023-05-10T08:06:40;3.97;;;2.42;;
79401;SDS011;68857;47.916;106.940;2023-05-10T08:09:06;5.75;;;2.75;;
79401;SDS011;68857;47.916;106.940;2023-05-10T08:11:33;4.95;;;2.25;;
79401;SDS011;68857;47.916;106.940;2023-05-10T08:14:00;4.82;;;2.13;;
79401;SDS011;68857;47.916;106.940;2023-05-10T08:16:27;6.43;;;2.17;;
79401;SDS011;68857;47.916;106.940;2023-05-10T08:18:53;4.85;;;2.58;;
79401;SDS011;68857;47.916;106.940;2023-05-10T08:21:20;3.67;;;2.10;;
79401;SDS011;68857;47.916;106.940;2023-05-10T08:23:46;6.20;;;2.90;;
79401;SDS011;68857;47.916;106.940;2023-05-10T08:26:14;4.78;;;2.35;;
79401;SDS011;68857;47.916;106.940;2023-05-10T08:28:40;4.70;;;2.10;;
79401;SDS011;68857;47.916;106.940;2023-05-10T08:31:07;4.68;;;3.22;;
79401;SDS011;68857;47.916;106.940;2023-05-10T08:33:33;3.85;;;2.30;;
79401;SDS011;68857;47.916;106.940;2023-05-10T08:36:00;4.15;;;2.72;;
79401;SDS011;68857;47.916;106.940;2023-05-10T08:38:27;4.70;;;2.38;;
79401;SDS011;68857;47.916;106.940;2023-05-10T08:40:54;3.72;;;2.08;;
79401;SDS011;68857;47.916;106.940;2023-05-10T08:43:26;6.00;;;2.58;;
79401;SDS011;68857;47.916;106.940;2023-05-10T08:45:54;6.32;;;2.90;;
79401;SDS011;68857;47.916;106.940;2023-05-10T08:48:24;5.68;;;2.17;;
79401;SDS011;68857;47.916;106.940;2023-05-10T08:50:52;4.25;;;2.00;;
79401;SDS011;68857;47.916;106.940;2023-05-10T08:53:20;7.70;;;2.83;;
79401;SDS011;68857;47.916;106.940;2023-05-10T08:55:47;8.15;;;2.70;;
79401;SDS011;68857;47.916;106.940;2023-05-10T08:58:14;10.48;;;4.55;;
79401;SDS011;68857;47.916;106.940;2023-05-10T09:00:41;13.38;;;4.03;;
79401;SDS011;68857;47.916;106.940;2023-05-10T09:03:08;11.48;;;3.80;;
79401;SDS011;68857;47.916;106.940;2023-05-10T09:05:35;11.18;;;4.65;;
79401;SDS011;68857;47.916;106.940;2023-05-10T09:08:02;8.63;;;3.50;;
79401;SDS011;68857;47.916;106.940;2023-05-10T09:10:29;8.77;;;4.50;;
79401;SDS011;68857;47.916;106.940;2023-05-10T09:12:56;8.93;;;3.72;;
79401;SDS011;68857;47.916;106.940;2023-05-10T09:15:23;9.27;;;2.88;;
79401;SDS011;68857;47.916;106.940;2023-05-10T09:17:50;7.82;;;3.10;;
79401;SDS011;68857;47.916;106.940;2023-05-10T09:20:17;8.05;;;3.17;;
79401;SDS011;68857;47.916;106.940;2023-05-10T09:22:43;12.63;;;4.25;;
79401;SDS011;68857;47.916;106.940;2023-05-10T09:25:11;7.72;;;2.72;;
79401;SDS011;68857;47.916;106.940;2023-05-10T09:27:38;6.97;;;3.28;;
79401;SDS011;68857;47.916;106.940;2023-05-10T09:30:06;10.35;;;3.33;;
79401;SDS011;68857;47.916;106.940;2023-05-10T09:32:51;9.63;;;3.92;;
79401;SDS011;68857;47.916;106.940;2023-05-10T09:35:18;7.38;;;3.60;;
79401;SDS011;68857;47.916;106.940;2023-05-10T09:37:46;8.07;;;3.33;;
79401;SDS011;68857;47.916;106.940;2023-05-10T09:40:18;7.03;;;3.47;;
79401;SDS011;68857;47.916;106.940;2023-05-10T09:42:55;9.90;;;4.72;;
79401;SDS011;68857;47.916;106.940;2023-05-10T09:45:22;7.45;;;3.13;;
79401;SDS011;68857;47.916;106.940;2023-05-10T09:47:49;7.50;;;3.75;;
79401;SDS011;68857;47.916;106.940;2023-05-10T09:50:15;8.45;;;4.03;;
79401;SDS011;68857;47.916;106.940;2023-05-10T09:52:46;6.25;;;4.20;;
79401;SDS011;68857;47.916;106.940;2023-05-10T09:55:13;9.10;;;3.92;;
79401;SDS011;68857;47.916;106.940;2023-05-10T09:57:40;7.05;;;3.28;;
79401;SDS011;68857;47.916;106.940;2023-05-10T10:00:06;7.25;;;3.58;;
79401;SDS011;68857;47.916;106.940;2023-05-10T10:02:35;4.78;;;3.03;;
79401;SDS011;68857;47.916;106.940;2023-05-10T10:05:02;8.90;;;3.05;;
79401;SDS011;68857;47.916;106.940;2023-05-10T10:07:29;8.75;;;3.30;;
79401;SDS011;68857;47.916;106.940;2023-05-10T10:09:56;7.00;;;2.65;;
79401;SDS011;68857;47.916;106.940;2023-05-10T10:12:22;4.22;;;2.40;;
79401;SDS011;68857;47.916;106.940;2023-05-10T10:14:49;7.95;;;3.05;;
79401;SDS011;68857;47.916;106.940;2023-05-10T10:17:16;6.10;;;3.10;;
79401;SDS011;68857;47.916;106.940;2023-05-10T10:19:42;5.97;;;2.80;;
79401;SDS011;68857;47.916;106.940;2023-05-10T10:22:09;8.25;;;3.28;;
79401;SDS011;68857;47.916;106.940;2023-05-10T10:24:37;5.28;;;2.90;;
79401;SDS011;68857;47.916;106.940;2023-05-10T10:27:20;5.38;;;3.42;;
79401;SDS011;68857;47.916;106.940;2023-05-10T10:29:55;8.20;;;2.42;;
79401;SDS011;68857;47.916;106.940;2023-05-10T10:32:27;6.78;;;2.08;;
79401;SDS011;68857;47.916;106.940;2023-05-10T10:34:54;6.00;;;2.45;;
79401;SDS011;68857;47.916;106.940;2023-05-10T10:37:21;5.25;;;2.50;;
79401;SDS011;68857;47.916;106.940;2023-05-10T10:39:48;5.57;;;2.92;;
79401;SDS011;68857;47.916;106.940;2023-05-10T10:42:31;6.60;;;2.83;;
79401;SDS011;68857;47.916;106.940;2023-05-10T10:45:11;5.82;;;2.75;;
79401;SDS011;68857;47.916;106.940;2023-05-10T10:47:38;4.70;;;2.55;;
79401;SDS011;68857;47.916;106.940;2023-05-10T10:50:06;6.57;;;2.45;;
79401;SDS011;68857;47.916;106.940;2023-05-10T10:52:39;6.22;;;2.72;;
79401;SDS011;68857;47.916;106.940;2023-05-10T10:55:07;3.58;;;2.22;;
79401;SDS011;68857;47.916;106.940;2023-05-10T11:00:26;4.68;;;2.58;;
79401;SDS011;68857;47.916;106.940;2023-05-10T11:03:06;9.60;;;3.25;;
79401;SDS011;68857;47.916;106.940;2023-05-10T11:08:10;7.78;;;2.65;;
79401;SDS011;68857;47.916;106.940;2023-05-10T11:10:37;9.32;;;2.88;;
79401;SDS011;68857;47.916;106.940;2023-05-10T11:13:05;6.90;;;2.80;;
79401;SDS011;68857;47.916;106.940;2023-05-10T11:15:35;4.47;;;2.22;;
79401;SDS011;68857;47.916;106.940;2023-05-10T11:18:24;8.20;;;2.85;;
79401;SDS011;68857;47.916;106.940;2023-05-10T11:20:57;5.10;;;3.08;;
79401;SDS011;68857;47.916;106.940;2023-05-10T11:24:12;9.38;;;2.88;;
79401;SDS011;68857;47.916;106.940;2023-05-10T11:26:11;7.22;;;2.13;;
79401;SDS011;68857;47.916;106.940;2023-05-10T11:28:41;7.07;;;2.22;;
79401;SDS011;68857;47.916;106.940;2023-05-10T11:31:08;8.73;;;3.08;;
79401;SDS011;68857;47.916;106.940;2023-05-10T11:33:49;8.13;;;3.80;;
79401;SDS011;68857;47.916;106.940;2023-05-10T11:36:16;6.32;;;2.20;;
79401;SDS011;68857;47.916;106.940;2023-05-10T11:38:43;4.97;;;2.53;;
79401;SDS011;68857;47.916;106.940;2023-05-10T11:41:10;7.72;;;2.90;;
79401;SDS011;68857;47.916;106.940;2023-05-10T11:43:41;7.80;;;2.38;;
79401;SDS011;68857;47.916;106.940;2023-05-10T11:46:09;6.07;;;2.63;;
79401;SDS011;68857;47.916;106.940;2023-05-10T11:48:36;5.80;;;2.58;;
79401;SDS011;68857;47.916;106.940;2023-05-10T11:51:04;7.07;;;2.25;;
79401;SDS011;68857;47.916;106.940;2023-05-10T11:53:31;4.97;;;2.33;;
79401;SDS011;68857;47.916;106.940;2023-05-10T11:56:09;8.15;;;2.60;;
79401;SDS011;68857;47.916;106.940;2023-05-10T12:01:02;7.82;;;3.22;;
79401;SDS011;68857;47.916;106.940;2023-05-10T12:03:29;6.55;;;2.70;;
79401;SDS011;68857;47.916;106.940;2023-05-10T12:05:56;5.40;;;2.72;;
79401;SDS011;68857;47.916;106.940;2023-05-10T12:08:24;9.98;;;2.97;;
79401;SDS011;68857;47.916;106.940;2023-05-10T12:10:51;8.20;;;3.40;;
79401;SDS011;68857;47.916;106.940;2023-05-10T12:13:18;9.48;;;3.63;;
79401;SDS011;68857;47.916;106.940;2023-05-10T12:15:46;8.48;;;3.47;;
79401;SDS011;68857;47.916;106.940;2023-05-10T12:18:13;12.18;;;3.72;;
79401;SDS011;68857;47.916;106.940;2023-05-10T12:20:40;8.93;;;4.07;;
79401;SDS011;68857;47.916;106.940;2023-05-10T12:23:08;13.90;;;4.65;;
79401;SDS011;68857;47.916;106.940;2023-05-10T12:25:35;17.83;;;6.95;;
79401;SDS011;68857;47.916;106.940;2023-05-10T12:28:03;24.00;;;8.85;;
79401;SDS011;68857;47.916;106.940;2023-05-10T12:30:31;28.55;;;9.18;;
79401;SDS011;68857;47.916;106.940;2023-05-10T12:33:02;25.95;;;9.25;;
79401;SDS011;68857;47.916;106.940;2023-05-10T12:35:31;25.52;;;9.07;;
79401;SDS011;68857;47.916;106.940;2023-05-10T12:41:03;25.10;;;8.63;;
79401;SDS011;68857;47.916;106.940;2023-05-10T12:43:29;28.30;;;10.10;;
79401;SDS011;68857;47.916;106.940;2023-05-10T12:45:56;20.92;;;8.32;;
79401;SDS011;68857;47.916;106.940;2023-05-10T12:48:23;28.63;;;8.40;;
79401;SDS011;68857;47.916;106.940;2023-05-10T12:50:50;22.23;;;7.85;;
79401;SDS011;68857;47.916;106.940;2023-05-10T12:53:24;23.08;;;7.93;;
79401;SDS011;68857;47.916;106.940;2023-05-10T12:55:51;20.50;;;6.68;;
79401;SDS011;68857;47.916;106.940;2023-05-10T12:58:18;18.92;;;6.68;;
79401;SDS011;68857;47.916;106.940;2023-05-10T13:00:45;20.63;;;6.80;;
79401;SDS011;68857;47.916;106.940;2023-05-10T13:03:11;18.98;;;6.57;;
79401;SDS011;68857;47.916;106.940;2023-05-10T13:05:38;15.73;;;6.25;;
79401;SDS011;68857;47.916;106.940;2023-05-10T13:08:05;18.13;;;7.57;;
79401;SDS011;68857;47.916;106.940;2023-05-10T13:10:32;14.95;;;6.90;;
79401;SDS011;68857;47.916;106.940;2023-05-10T13:12:58;17.50;;;7.85;;
79401;SDS011;68857;47.916;106.940;2023-05-10T13:15:25;18.00;;;7.03;;
79401;SDS011;68857;47.916;106.940;2023-05-10T13:17:52;18.65;;;7.60;;
79401;SDS011;68857;47.916;106.940;2023-05-10T13:20:19;19.58;;;7.03;;
79401;SDS011;68857;47.916;106.940;2023-05-10T13:22:46;18.13;;;7.13;;
79401;SDS011;68857;47.916;106.940;2023-05-10T13:25:13;16.38;;;7.82;;
79401;SDS011;68857;47.916;106.940;2023-05-10T13:27:39;18.15;;;8.00;;
79401;SDS011;68857;47.916;106.940;2023-05-10T13:30:06;16.98;;;8.75;;
79401;SDS011;68857;47.916;106.940;2023-05-10T13:32:33;20.63;;;9.25;;
79401;SDS011;68857;47.916;106.940;2023-05-10T13:35:00;14.18;;;8.07;;
79401;SDS011;68857;47.916;106.940;2023-05-10T13:37:28;15.85;;;9.32;;
79401;SDS011;68857;47.916;106.940;2023-05-10T13:39:55;15.52;;;8.10;;
79401;SDS011;68857;47.916;106.940;2023-05-10T13:42:22;16.35;;;7.03;;
79401;SDS011;68857;47.916;106.940;2023-05-10T13:44:52;14.63;;;6.90;;
79401;SDS011;68857;47.916;106.940;2023-05-10T13:47:18;12.18;;;6.35;;
79401;SDS011;68857;47.916;106.940;2023-05-10T13:49:46;11.73;;;6.45;;
79401;SDS011;68857;47.916;106.940;2023-05-10T13:52:13;14.70;;;5.43;;
79401;SDS011;68857;47.916;106.940;2023-05-10T13:54:40;13.95;;;5.95;;
79401;SDS011;68857;47.916;106.940;2023-05-10T13:57:07;14.32;;;5.28;;
79401;SDS011;68857;47.916;106.940;2023-05-10T13:59:34;15.18;;;5.18;;
79401;SDS011;68857;47.916;106.940;2023-05-10T14:02:00;11.48;;;5.07;;
79401;SDS011;68857;47.916;106.940;2023-05-10T14:04:28;10.45;;;5.72;;
79401;SDS011;68857;47.916;106.940;2023-05-10T14:06:54;11.60;;;4.90;;
79401;SDS011;68857;47.916;106.940;2023-05-10T14:09:21;9.48;;;4.15;;
79401;SDS011;68857;47.916;106.940;2023-05-10T14:11:47;11.13;;;5.22;;
79401;SDS011;68857;47.916;106.940;2023-05-10T14:14:14;9.65;;;4.97;;
79401;SDS011;68857;47.916;106.940;2023-05-10T14:16:43;11.73;;;5.45;;
79401;SDS011;68857;47.916;106.940;2023-05-10T14:19:10;10.20;;;5.13;;
79401;SDS011;68857;47.916;106.940;2023-05-10T14:21:37;10.95;;;4.53;;
79401;SDS011;68857;47.916;106.940;2023-05-10T14:24:04;10.50;;;4.65;;
79401;SDS011;68857;47.916;106.940;2023-05-10T14:26:32;10.13;;;5.32;;
79401;SDS011;68857;47.916;106.940;2023-05-10T14:28:59;10.00;;;5.70;;
79401;SDS011;68857;47.916;106.940;2023-05-10T14:31:26;12.80;;;6.15;;
79401;SDS011;68857;47.916;106.940;2023-05-10T14:33:55;10.90;;;6.15;;
79401;SDS011;68857;47.916;106.940;2023-05-10T14:36:22;11.77;;;7.60;;
79401;SDS011;68857;47.916;106.940;2023-05-10T14:38:49;15.27;;;6.60;;
79401;SDS011;68857;47.916;106.940;2023-05-10T14:41:16;15.85;;;7.47;;
79401;SDS011;68857;47.916;106.940;2023-05-10T14:43:42;16.15;;;7.15;;
79401;SDS011;68857;47.916;106.940;2023-05-10T14:46:09;13.30;;;6.72;;
79401;SDS011;68857;47.916;106.940;2023-05-10T14:48:36;15.40;;;7.07;;